South Coffeyville, Oklahoma
Current Conditions -  °F | °C
As of 1:52 AM on Thursday 29 Jan 2015 (Local Time) from KCFV Reporting Station
Clear Clear  
Wind Chill: 56°   Ceiling: Unl
Heat Index: 56°   Visibility: 10mi
Dew Point: 33°   Wind: 9mph
Humidity: 42%   Direction: 320°NW
Pressure: 30"   Gusts: NA
Location:  36.99°N, 95.62°W
Report Text: KCFV 290752Z AUTO 32008KT 10SM CLR 13/01 A3000 RMK AO2 SLP157 T01330006
Loading
Personal Weather Stations






























Interactive Weather Map New forecast layout! Learn more

10-Day Weather Forecast

Advertisements
Track Severe Weather on mobile